Time;durP1;ratioP1;P1;durP2;ratioP2;P2;SDS_P1;SDS_P2;PMS_P1;PMS_P2;Temp;Humidity;BMP_temperature;BMP_pressure;BME280_temperature;BME280_humidity;BME280_pressure;Samples;Min_cycle;Max_cycle;Signal;HPM_P1;HPM_P2
2022/06/15 00:01:05;;;;;;;5.78;5.47;;;;;;;13.70;78.08;101353.94;6048389;23;20571;-66
2022/06/15 00:03:36;;;;;;;4.80;4.60;;;;;;;13.66;78.56;101356.84;6056486;23;20073;-69
2022/06/15 00:06:08;;;;;;;5.75;5.47;;;;;;;13.63;78.67;101351.72;6048483;23;20029;-67
2022/06/15 00:08:36;;;;;;;4.97;4.78;;;;;;;13.58;78.73;101344.06;6008078;23;20022;-67
2022/06/15 00:11:05;;;;;;;5.47;5.28;;;;;;;13.54;78.68;101345.16;6055570;23;20304;-67
2022/06/15 00:13:32;;;;;;;4.97;4.78;;;;;;;13.51;78.63;101340.91;6022728;23;20055;-66
2022/06/15 00:15:58;;;;;;;4.93;4.68;;;;;;;13.36;79.47;101315.38;6056610;23;20312;-73
2022/06/15 00:18:28;;;;;;;4.78;4.57;;;;;;;13.45;79.87;101338.63;6025286;23;20027;-71
2022/06/15 00:20:56;;;;;;;4.80;4.60;;;;;;;13.43;79.57;101336.97;6052566;23;20021;-71
2022/06/15 00:23:24;;;;;;;4.95;4.75;;;;;;;13.38;80.05;101334.59;6047121;23;20038;-71
2022/06/15 00:25:52;;;;;;;4.70;4.50;;;;;;;13.35;80.60;101340.06;6031105;23;20030;-71
2022/06/15 00:28:20;;;;;;;5.95;5.65;;;;;;;13.31;82.32;101346.38;6049287;23;20296;-74
2022/06/15 00:30:51;;;;;;;4.65;4.45;;;;;;;13.22;82.51;101329.25;6052821;23;20034;-74
2022/06/15 00:33:26;;;;;;;5.32;5.13;;;;;;;13.23;82.65;101335.38;6035985;23;20015;-75
2022/06/15 00:35:59;;;;;;;4.68;4.47;;;;;;;13.18;83.38;101331.19;6055942;23;20042;-72
2022/06/15 00:38:30;;;;;;;4.60;4.40;;;;;;;13.13;82.84;101327.97;6028463;23;20023;-71
2022/06/15 00:40:58;;;;;;;4.60;4.40;;;;;;;13.01;83.09;101307.53;6042164;23;20037;-74
2022/06/15 00:43:28;;;;;;;4.88;4.68;;;;;;;13.05;83.54;101330.16;6017914;23;20023;-73
2022/06/15 00:45:55;;;;;;;4.78;4.57;;;;;;;12.87;84.10;101316.16;6056436;23;20422;-76
2022/06/15 00:48:22;;;;;;;4.70;4.50;;;;;;;12.67;84.43;101282.97;6046842;23;20407;-73
2022/06/15 00:50:50;;;;;;;4.90;4.70;;;;;;;12.89;84.49;101318.69;6053265;23;20460;-71
2022/06/15 00:53:17;;;;;;;6.00;5.70;;;;;;;12.68;85.18;101295.19;6018657;23;20557;-71
2022/06/15 00:55:45;;;;;;;4.63;4.43;;;;;;;12.71;85.76;101313.47;6046583;23;20018;-68
2022/06/15 00:58:13;;;;;;;6.28;5.97;;;;;;;12.72;86.57;101319.59;6024958;23;20010;-72
2022/06/15 01:00:39;;;;;;;4.60;4.40;;;;;;;12.60;86.62;101318.41;6051729;23;20031;-70
2022/06/15 01:03:11;;;;;;;6.38;6.07;;;;;;;12.60;87.18;101323.69;6004081;23;20064;-65
2022/06/15 01:05:52;;;;;;;4.63;4.43;;;;;;;12.56;88.04;101324.78;6030688;23;20034;-69
2022/06/15 01:08:50;;;;;;;4.80;4.60;;;;;;;12.51;88.39;101327.66;6039283;23;20025;-72
2022/06/15 01:11:29;;;;;;;5.53;5.32;;;;;;;12.45;89.60;101327.94;6023241;23;20861;-67
2022/06/15 01:14:46;;;;;;;4.70;4.50;;;;;;;12.38;89.30;101324.75;6022911;23;20063;-67
2022/06/15 01:18:00;;;;;;;6.07;5.78;;;;;;;12.33;89.42;101325.94;6043254;23;20024;-68
2022/06/15 01:20:40;;;;;;;5.18;4.90;;;;;;;12.20;89.72;101309.03;5880863;24;20017;-69
2022/06/15 01:23:46;;;;;;;6.05;5.75;;;;;;;12.25;90.54;101320.16;5925092;24;20016;-66
2022/06/15 01:26:30;;;;;;;5.95;5.65;;;;;;;12.05;90.50;101295.72;6004373;23;20019;-68
2022/06/15 01:29:12;;;;;;;4.68;4.47;;;;;;;12.15;91.50;101338.22;6048213;23;20085;-66
2022/06/15 01:31:46;;;;;;;5.65;5.18;;;;;;;12.06;91.52;101309.72;6055374;23;20034;-66
2022/06/15 01:34:32;;;;;;;5.47;5.28;;;;;;;12.10;92.70;101321.78;6022822;23;20034;-67
2022/06/15 01:37:10;;;;;;;5.03;4.82;;;;;;;11.89;92.37;101294.75;6028991;23;20403;-66
2022/06/15 01:39:53;;;;;;;4.95;4.75;;;;;;;12.03;93.00;101321.25;6024657;23;20086;-66
2022/06/15 01:42:33;;;;;;;5.10;4.90;;;;;;;11.92;92.36;101307.75;6003593;23;20029;-67
2022/06/15 01:45:05;;;;;;;5.00;4.78;;;;;;;11.99;92.62;101314.44;5996431;23;20316;-69
2022/06/15 01:47:33;;;;;;;4.70;4.50;;;;;;;11.82;93.11;101296.78;6027549;23;20023;-69
2022/06/15 01:50:23;;;;;;;4.50;4.30;;;;;;;11.78;92.84;101295.22;5995554;23;20015;-69
2022/06/15 01:52:56;;;;;;;4.70;4.50;;;;;;;11.73;93.16;101291.97;6026837;23;20472;-66
2022/06/15 01:55:30;;;;;;;4.55;4.35;;;;;;;11.84;93.90;101315.13;6010286;23;20453;-69
2022/06/15 01:58:02;;;;;;;4.47;4.28;;;;;;;11.78;94.79;101313.63;6031449;23;20021;-66
2022/06/15 02:00:30;;;;;;;4.70;4.50;;;;;;;11.53;94.48;101272.72;6005390;23;20038;-66
2022/06/15 02:03:20;;;;;;;4.65;4.45;;;;;;;11.73;95.76;101308.59;6037068;23;20532;-67
2022/06/15 02:06:09;;;;;;;4.43;4.22;;;;;;;11.71;95.50;101315.69;6008020;23;20576;-67
2022/06/15 02:08:46;;;;;;;4.55;4.35;;;;;;;11.53;95.93;101283.22;6044565;23;20032;-71
2022/06/15 02:11:16;;;;;;;6.22;5.93;;;;;;;11.66;96.78;101306.31;5992273;23;20038;-74
2022/06/15 02:13:48;;;;;;;4.70;4.50;;;;;;;11.62;97.24;101299.50;5995105;23;21270;-71
2022/06/15 02:16:24;;;;;;;5.40;5.20;;;;;;;10.90;97.09;101185.44;5992530;23;20271;-71
2022/06/15 02:18:52;;;;;;;4.70;4.50;;;;;;;11.55;97.26;101291.91;6004467;23;20511;-70
2022/06/15 02:21:22;;;;;;;5.82;5.53;;;;;;;11.50;97.39;101287.78;5994028;23;20020;-73
2022/06/15 02:23:55;;;;;;;4.85;4.65;;;;;;;11.50;97.27;101296.50;6001315;23;20106;-70
2022/06/15 02:26:25;;;;;;;5.00;4.80;;;;;;;11.47;98.02;101291.41;5993143;23;20039;-72
2022/06/15 02:28:56;;;;;;;4.85;4.65;;;;;;;11.28;98.08;101259.00;6026091;23;20037;-72
2022/06/15 02:31:23;;;;;;;4.70;4.50;;;;;;;10.24;97.40;101092.13;5996106;23;20011;-72
2022/06/15 02:33:54;;;;;;;4.88;4.68;;;;;;;11.21;98.03;101258.44;6036345;23;20115;-70
2022/06/15 02:36:21;;;;;;;5.25;4.97;;;;;;;11.22;97.55;101254.88;6024955;23;20572;-71
2022/06/15 02:38:49;;;;;;;4.68;4.47;;;;;;;11.37;98.57;101287.50;5998882;23;20034;-71
2022/06/15 02:41:19;;;;;;;5.97;5.68;;;;;;;11.33;99.80;101293.81;6002317;23;20023;-72
2022/06/15 02:43:49;;;;;;;4.65;4.45;;;;;;;11.30;99.96;101288.69;6018793;23;20010;-71
2022/06/15 02:46:18;;;;;;;6.75;6.35;;;;;;;11.26;100.00;101290.59;6021165;23;20011;-72
2022/06/15 02:48:45;;;;;;;4.60;4.40;;;;;;;11.23;100.00;101292.53;5997681;23;20456;-71
2022/06/15 02:51:27;;;;;;;5.93;5.65;;;;;;;11.11;100.00;101275.56;6027340;23;20261;-74
2022/06/15 02:53:58;;;;;;;4.50;4.30;;;;;;;9.81;100.00;101064.34;6028125;23;20253;-72
2022/06/15 02:56:25;;;;;;;4.47;4.28;;;;;;;11.03;100.00;101277.69;6021447;23;20035;-70
2022/06/15 02:58:57;;;;;;;4.50;4.30;;;;;;;11.06;100.00;101282.78;5999923;23;20023;-72
2022/06/15 03:01:25;;;;;;;4.35;4.15;;;;;;;11.05;100.00;101288.97;6001093;23;20654;-72
2022/06/15 03:03:52;;;;;;;4.30;4.10;;;;;;;11.00;100.00;101276.03;6003660;23;20019;-73
2022/06/15 03:06:20;;;;;;;5.68;5.38;;;;;;;10.74;100.00;101235.16;6023187;23;20458;-73
2022/06/15 03:08:47;;;;;;;4.35;4.15;;;;;;;10.94;100.00;101265.78;6003583;23;20086;-70
2022/06/15 03:11:13;;;;;;;5.90;5.63;;;;;;;10.84;100.00;101251.38;6025596;23;20015;-73
2022/06/15 03:13:39;;;;;;;4.65;4.45;;;;;;;11.04;100.00;101285.47;6002302;23;20031;-66
2022/06/15 03:16:06;;;;;;;4.22;4.03;;;;;;;11.05;100.00;101281.94;6034130;23;20276;-67
2022/06/15 03:18:32;;;;;;;4.47;4.28;;;;;;;11.00;100.00;101276.03;5990570;23;20097;-67
2022/06/15 03:21:02;;;;;;;4.47;4.28;;;;;;;11.05;100.00;101291.59;6028380;23;20046;-71
2022/06/15 03:23:31;;;;;;;4.70;4.50;;;;;;;11.07;100.00;101287.97;6003745;23;20051;-73
2022/06/15 03:26:01;;;;;;;4.55;4.35;;;;;;;11.07;100.00;101280.09;6013517;23;20019;-71
2022/06/15 03:28:28;;;;;;;4.60;4.40;;;;;;;11.11;100.00;101288.69;6046172;23;20015;-73
2022/06/15 03:30:54;;;;;;;4.70;4.50;;;;;;;10.94;100.00;101255.28;6012859;23;20349;-71
2022/06/15 03:33:21;;;;;;;4.68;4.47;;;;;;;11.00;100.00;101267.28;6036952;23;20029;-70
2022/06/15 03:35:48;;;;;;;4.55;4.35;;;;;;;11.15;100.00;101283.22;6000992;23;20568;-69
2022/06/15 03:38:15;;;;;;;6.15;5.85;;;;;;;11.15;100.00;101288.47;6017110;23;20228;-72
2022/06/15 03:40:44;;;;;;;4.60;4.40;;;;;;;11.18;100.00;101285.72;6021167;23;20023;-71
2022/06/15 03:43:11;;;;;;;5.85;5.55;;;;;;;11.23;100.00;101288.13;6014419;23;20037;-71
2022/06/15 03:45:38;;;;;;;4.50;4.30;;;;;;;11.12;100.00;101262.34;6019630;23;20027;-70
2022/06/15 03:48:05;;;;;;;5.00;4.80;;;;;;;11.30;100.00;101291.31;6019007;23;20066;-75
2022/06/15 03:50:33;;;;;;;4.40;4.20;;;;;;;11.35;100.00;101289.34;5997491;23;20441;-73
2022/06/15 03:53:00;;;;;;;4.78;4.57;;;;;;;11.34;100.00;101282.38;6027972;23;20521;-65
2022/06/15 03:55:28;;;;;;;4.50;4.30;;;;;;;11.44;100.00;101293.31;5992795;23;20127;-72
2022/06/15 03:57:55;;;;;;;4.55;4.35;;;;;;;11.47;100.00;101298.44;6001675;23;20059;-74
2022/06/15 04:00:23;;;;;;;4.40;4.20;;;;;;;11.41;100.00;101289.06;5999852;23;20138;-70
2022/06/15 04:02:50;;;;;;;4.65;4.45;;;;;;;11.42;100.00;101277.63;6028045;23;20374;-70
2022/06/15 04:05:24;;;;;;;6.07;5.78;;;;;;;11.60;100.00;101301.34;5990781;23;20023;-72
2022/06/15 04:10:35;;;;;;;4.55;4.35;;;;;;;12.20;98.96;101266.94;6005196;23;20030;-72
2022/06/15 04:13:02;;;;;;;5.03;4.82;;;;;;;13.21;93.74;101271.34;6019202;23;20030;-75
2022/06/15 04:15:29;;;;;;;5.18;4.88;;;;;;;14.32;86.86;101300.34;6003542;23;20094;-66
2022/06/15 04:17:56;;;;;;;4.68;4.47;;;;;;;14.94;81.04;101279.91;5995336;23;20026;-73
2022/06/15 04:20:36;;;;;;;4.75;4.55;;;;;;;15.63;76.00;101301.19;5997552;23;20025;-74
2022/06/15 04:23:09;;;;;;;5.85;5.55;;;;;;;15.88;73.52;101302.31;6028231;23;20612;-70
2022/06/15 04:25:44;;;;;;;5.07;4.88;;;;;;;16.08;72.57;101303.66;6016411;23;20011;-71
2022/06/15 04:28:13;;;;;;;6.50;6.20;;;;;;;16.35;72.08;101300.97;5994558;23;20325;-67
2022/06/15 04:30:40;;;;;;;5.28;4.97;;;;;;;17.32;69.19;101302.31;5994906;23;20493;-67
2022/06/15 04:33:06;;;;;;;6.47;6.18;;;;;;;17.82;67.26;101299.59;6003945;23;20026;-67
2022/06/15 04:35:33;;;;;;;5.63;5.32;;;;;;;18.23;64.57;101301.03;5983261;23;20037;-71
2022/06/15 04:37:59;;;;;;;5.25;5.03;;;;;;;18.54;62.71;101291.56;5999374;23;20025;-70
2022/06/15 04:40:26;;;;;;;5.40;5.20;;;;;;;17.92;60.37;101259.03;6028365;23;20134;-67
2022/06/15 04:42:52;;;;;;;5.70;5.40;;;;;;;18.32;61.05;101298.53;6048559;23;20040;-67
2022/06/15 04:45:19;;;;;;;5.35;5.15;;;;;;;19.37;60.78;101293.13;6018556;23;20226;-67
2022/06/15 04:47:46;;;;;;;5.30;5.10;;;;;;;20.04;58.12;101293.97;6052704;23;20027;-71
2022/06/15 04:50:13;;;;;;;7.18;6.78;;;;;;;20.71;55.98;101303.47;6000290;23;20029;-67
2022/06/15 04:52:42;;;;;;;5.65;5.35;;;;;;;21.27;53.55;101299.53;6046822;23;20914;-71
2022/06/15 04:55:11;;;;;;;7.05;6.72;;;;;;;21.76;52.38;101297.00;6016512;23;20447;-67
2022/06/15 04:57:38;;;;;;;5.82;5.53;;;;;;;21.81;50.22;101260.88;6048579;23;20054;-74
2022/06/15 05:00:12;;;;;;;6.55;6.25;;;;;;;21.56;50.67;101280.09;6002152;23;20308;-71
2022/06/15 05:02:38;;;;;;;5.90;5.60;;;;;;;21.46;49.55;101302.28;6058476;23;20045;-74
2022/06/15 05:05:05;;;;;;;6.28;5.93;;;;;;;21.73;50.52;101305.28;6025278;23;20015;-67
2022/06/15 05:07:32;;;;;;;6.30;5.68;;;;;;;21.86;48.93;101301.38;6055887;23;20286;-73
2022/06/15 05:09:58;;;;;;;6.20;5.80;;;;;;;22.66;47.75;101294.03;6029043;23;20365;-74
2022/06/15 05:12:25;;;;;;;6.05;5.75;;;;;;;23.44;45.61;101309.84;6029556;23;20019;-72
2022/06/15 05:14:52;;;;;;;5.70;5.40;;;;;;;23.30;44.06;101318.38;6023044;23;20324;-72
2022/06/15 05:17:20;;;;;;;6.40;6.10;;;;;;;23.60;44.44;101286.91;6025977;23;20025;-73
2022/06/15 05:19:47;;;;;;;6.13;5.75;;;;;;;24.12;43.14;101319.31;6031231;23;20027;-67
2022/06/15 05:22:13;;;;;;;7.97;7.57;;;;;;;24.37;43.07;101312.28;6048292;23;20018;-68
2022/06/15 05:24:41;;;;;;;6.03;5.72;;;;;;;24.45;43.65;101300.78;6030904;23;20019;-70
2022/06/15 05:27:08;;;;;;;7.50;7.10;;;;;;;24.45;42.77;101292.75;6053364;23;20082;-73
2022/06/15 05:29:37;;;;;;;6.13;5.82;;;;;;;24.29;41.62;101269.31;6053159;23;20022;-72
2022/06/15 05:32:07;;;;;;;6.72;6.40;;;;;;;24.78;41.31;101314.47;6057522;23;20040;-71
2022/06/15 05:34:35;;;;;;;6.13;5.82;;;;;;;24.25;42.88;101282.19;6027063;23;20014;-69
2022/06/15 05:37:02;;;;;;;6.78;6.40;;;;;;;24.63;41.79;101272.09;6051774;23;20014;-66
2022/06/15 05:39:29;;;;;;;6.43;6.13;;;;;;;25.00;41.40;101310.41;6027071;23;20077;-67
2022/06/15 05:41:56;;;;;;;6.93;6.53;;;;;;;25.19;40.83;101309.31;6043473;23;20020;-67
2022/06/15 05:44:36;;;;;;;6.05;5.75;;;;;;;25.01;41.41;101298.66;6001500;23;20494;-67
2022/06/15 05:47:04;;;;;;;7.25;6.85;;;;;;;24.62;41.85;101269.59;6050097;23;20024;-67
2022/06/15 05:49:32;;;;;;;6.18;5.88;;;;;;;25.37;41.14;101306.56;6030315;23;20038;-73
2022/06/15 05:52:00;;;;;;;6.55;6.15;;;;;;;25.43;41.01;101289.81;6051813;23;20085;-75
2022/06/15 05:54:27;;;;;;;7.00;6.30;;;;;;;25.52;39.62;101312.16;5999096;23;20796;-72
2022/06/15 05:56:53;;;;;;;6.35;6.03;;;;;;;25.27;39.79;101314.75;6053153;23;20042;-71
2022/06/15 05:59:19;;;;;;;6.18;5.88;;;;;;;24.71;40.73;101284.72;6025549;23;20027;-73
2022/06/15 06:01:46;;;;;;;6.03;5.72;;;;;;;24.88;42.07;101312.53;6055601;23;20115;-67
2022/06/15 06:04:15;;;;;;;7.60;7.15;;;;;;;25.19;40.72;101301.25;6051506;23;20034;-73
2022/06/15 06:06:41;;;;;;;6.47;6.18;;;;;;;25.25;40.57;101311.38;6017327;23;20035;-67
2022/06/15 06:09:10;;;;;;;7.25;6.85;;;;;;;25.52;39.96;101320.22;6030941;23;20101;-69
2022/06/15 06:11:37;;;;;;;6.63;6.22;;;;;;;25.50;40.44;101315.03;6047357;23;20409;-67
2022/06/15 06:14:04;;;;;;;6.82;6.43;;;;;;;25.32;39.74;101300.81;6041626;23;20611;-67
2022/06/15 06:16:31;;;;;;;7.00;6.50;;;;;;;24.45;41.18;101316.88;6026392;23;20069;-67
2022/06/15 06:18:58;;;;;;;6.68;6.10;;;;;;;25.13;40.73;101299.22;6052454;23;20034;-73
2022/06/15 06:21:24;;;;;;;6.15;5.85;;;;;;;25.64;39.56;101294.75;6024488;23;20019;-72
2022/06/15 06:23:51;;;;;;;6.30;5.93;;;;;;;24.76;41.12;101277.06;6054095;23;20097;-71
2022/06/15 06:26:26;;;;;;;6.97;6.57;;;;;;;24.06;41.88;101287.75;6026475;23;20042;-70
2022/06/15 06:28:54;;;;;;;7.18;6.50;;;;;;;24.38;42.05;101315.84;6054890;23;20635;-67
2022/06/15 06:31:20;;;;;;;6.63;6.32;;;;;;;23.65;42.55;101314.94;6051111;23;20010;-67
2022/06/15 06:33:48;;;;;;;7.00;6.40;;;;;;;22.34;45.60;101317.63;6056531;23;20057;-68
2022/06/15 06:36:36;;;;;;;7.80;7.40;;;;;;;22.32;46.54;101314.22;6023508;23;20010;-74
2022/06/15 06:39:09;;;;;;;7.45;6.95;;;;;;;21.58;48.92;101323.53;6023191;23;20054;-69
2022/06/15 06:41:36;;;;;;;6.88;6.47;;;;;;;21.18;49.34;101303.84;6048405;23;20020;-66
2022/06/15 06:44:06;;;;;;;7.75;7.25;;;;;;;21.14;49.08;101317.59;6021024;23;20039;-65
2022/06/15 06:46:35;;;;;;;6.20;5.90;;;;;;;20.47;52.84;101320.53;6053236;23;20019;-66
2022/06/15 06:49:04;;;;;;;7.18;6.80;;;;;;;20.80;52.19;101326.69;6028404;23;20042;-66
2022/06/15 06:51:34;;;;;;;5.82;5.53;;;;;;;20.65;52.72;101283.50;6027635;23;20026;-73
2022/06/15 06:54:01;;;;;;;6.03;5.70;;;;;;;21.15;51.11;101327.28;6024857;23;20326;-69
2022/06/15 06:56:27;;;;;;;6.50;6.15;;;;;;;20.65;52.52;101302.16;6054230;23;20416;-74
2022/06/15 06:58:54;;;;;;;6.00;5.70;;;;;;;20.53;51.90;101324.53;6031463;23;20015;-68
2022/06/15 07:01:20;;;;;;;6.00;5.70;;;;;;;20.78;51.85;101327.78;6048226;23;20444;-68
2022/06/15 07:03:47;;;;;;;6.57;6.18;;;;;;;20.81;51.58;101328.38;6029844;23;20116;-68
2022/06/15 07:06:14;;;;;;;8.65;8.15;;;;;;;20.93;51.38;101329.16;6019470;23;20021;-69
2022/06/15 07:08:40;;;;;;;5.68;5.38;;;;;;;21.03;51.58;101331.88;6051744;23;20453;-67
2022/06/15 07:11:12;;;;;;;7.22;6.82;;;;;;;21.10;51.33;101333.03;6012780;23;20043;-69
2022/06/15 07:13:38;;;;;;;8.73;8.07;;;;;;;21.18;50.23;101311.84;6052359;23;20017;-66
2022/06/15 07:16:07;;;;;;;6.95;6.60;;;;;;;20.92;51.57;101324.78;6027451;23;20276;-67
2022/06/15 07:18:33;;;;;;;6.03;5.72;;;;;;;20.89;50.42;101266.38;6046327;23;20026;-72
2022/06/15 07:21:11;;;;;;;6.25;5.95;;;;;;;21.22;49.26;101323.09;6023958;23;20026;-74
2022/06/15 07:23:43;;;;;;;5.80;5.50;;;;;;;21.17;50.40;101326.19;6054605;23;20172;-70
2022/06/15 07:26:14;;;;;;;6.20;5.80;;;;;;;21.24;49.13;101279.28;6049344;23;20221;-68
2022/06/15 07:28:42;;;;;;;5.63;5.32;;;;;;;21.51;49.30;101312.56;6057481;23;20049;-66
2022/06/15 07:31:20;;;;;;;7.40;7.00;;;;;;;21.61;48.75;101304.56;6019326;23;20441;-71
2022/06/15 07:33:47;;;;;;;5.70;5.40;;;;;;;21.72;48.74;101317.81;6055928;23;20022;-71
2022/06/15 07:36:14;;;;;;;6.80;6.50;;;;;;;21.69;49.00;101324.28;6016022;23;20515;-71
2022/06/15 07:38:40;;;;;;;5.63;5.32;;;;;;;21.76;48.43;101332.56;6020799;23;20015;-74
2022/06/15 07:41:06;;;;;;;6.75;6.45;;;;;;;21.76;48.14;101332.56;5996109;23;20023;-71
2022/06/15 07:43:33;;;;;;;5.80;5.40;;;;;;;21.42;47.42;101330.19;6023115;23;20030;-71
2022/06/15 07:46:00;;;;;;;5.60;5.30;;;;;;;21.41;47.47;101308.97;5992695;23;20034;-72
2022/06/15 07:52:04;;;;;;;7.15;6.78;;;;;;;21.80;47.82;101328.66;5982198;23;20393;-69
2022/06/15 07:54:31;;;;;;;5.25;4.97;;;;;;;21.95;47.06;101277.47;5910721;24;20020;-71
2022/06/15 07:56:57;;;;;;;5.57;5.28;;;;;;;21.78;46.72;101319.94;5996117;23;20015;-73
2022/06/15 07:59:24;;;;;;;5.72;5.40;;;;;;;21.60;48.01;101327.75;6021871;23;20039;-72
2022/06/15 08:01:51;;;;;;;6.13;5.72;;;;;;;21.96;46.85;101324.59;6023757;23;20483;-72
2022/06/15 08:04:18;;;;;;;6.60;6.20;;;;;;;21.98;46.52;101326.16;6023872;23;20085;-70
2022/06/15 08:06:46;;;;;;;11.15;5.38;;;;;;;22.05;46.62;101331.78;5994858;23;20145;-70
2022/06/15 08:09:13;;;;;;;6.85;6.55;;;;;;;22.06;45.71;101328.13;6024835;23;20413;-67
2022/06/15 08:12:11;;;;;;;5.78;5.43;;;;;;;22.26;46.11;101311.13;5999831;23;20055;-72
2022/06/15 08:14:30;;;;;;;5.68;5.38;;;;;;;22.52;44.54;101321.25;6020037;23;20024;-71
2022/06/15 08:16:56;;;;;;;5.60;5.30;;;;;;;22.39;44.86;101323.38;5990504;23;20390;-72
2022/06/15 08:19:23;;;;;;;5.90;5.60;;;;;;;22.33;44.95;101302.53;6025467;23;20760;-73
2022/06/15 08:21:49;;;;;;;5.72;5.43;;;;;;;22.33;44.71;101303.41;5993917;23;20457;-72
2022/06/15 08:24:16;;;;;;;6.85;6.55;;;;;;;22.61;44.59;101328.44;6023268;23;20500;-71
2022/06/15 08:26:43;;;;;;;6.20;5.90;;;;;;;22.75;43.09;101319.06;5994070;23;20034;-72
2022/06/15 08:29:12;;;;;;;6.80;6.47;;;;;;;22.83;43.17;101332.59;6023290;23;20042;-69
2022/06/15 08:31:39;;;;;;;5.47;5.22;;;;;;;22.95;42.74;101311.00;6006760;23;20059;-72
2022/06/15 08:34:06;;;;;;;7.05;6.65;;;;;;;23.13;41.93;101316.47;6025552;23;20020;-67
2022/06/15 08:36:34;;;;;;;5.72;5.43;;;;;;;23.15;43.81;101325.19;6025964;23;20243;-67
2022/06/15 08:39:01;;;;;;;5.78;5.38;;;;;;;22.41;42.90;101308.00;6045515;23;20071;-67
2022/06/15 08:41:42;;;;;;;5.40;5.20;;;;;;;22.63;42.65;101321.09;6013922;23;20023;-67
2022/06/15 08:44:48;;;;;;;6.80;6.50;;;;;;;22.84;42.47;101330.78;6049174;23;20376;-67
2022/06/15 08:47:37;;;;;;;6.45;6.15;;;;;;;22.92;41.71;101320.19;5994508;23;20034;-67
2022/06/15 08:50:16;;;;;;;6.80;6.50;;;;;;;22.88;42.32;101327.66;6022872;23;20102;-67
2022/06/15 08:52:49;;;;;;;5.43;5.22;;;;;;;22.95;42.63;101319.03;6038611;23;20453;-67
2022/06/15 08:55:36;;;;;;;6.78;6.47;;;;;;;22.85;42.85;101321.72;6061782;23;20181;-72
2022/06/15 08:58:21;;;;;;;6.55;6.25;;;;;;;23.14;41.11;101320.84;6021282;23;20030;-74
2022/06/15 09:00:51;;;;;;;5.75;5.45;;;;;;;23.22;39.66;101307.56;6060300;23;20228;-67
2022/06/15 09:03:35;;;;;;;6.38;6.07;;;;;;;23.37;40.59;101324.81;6020151;23;20371;-70
2022/06/15 09:06:11;;;;;;;6.25;5.95;;;;;;;23.52;41.19;101322.50;6046192;23;20022;-72
2022/06/15 09:08:56;;;;;;;5.60;5.30;;;;;;;23.61;42.16;101318.06;6016523;23;20463;-73
2022/06/15 09:11:44;;;;;;;5.68;5.40;;;;;;;23.62;40.88;101312.56;6049775;23;20369;-67
2022/06/15 09:14:32;;;;;;;6.75;6.45;;;;;;;23.66;39.56;101313.94;6017823;23;20086;-67
2022/06/15 09:17:04;;;;;;;5.75;5.45;;;;;;;23.83;39.99;101306.94;6051516;23;20412;-67
2022/06/15 09:19:46;;;;;;;5.80;5.50;;;;;;;24.01;40.40;101308.78;6024786;23;20031;-67
2022/06/15 09:22:23;;;;;;;5.75;5.45;;;;;;;24.15;40.81;101315.47;6052734;23;20065;-67
2022/06/15 09:24:56;;;;;;;5.50;5.30;;;;;;;24.10;39.42;101283.75;6030841;23;20542;-67
2022/06/15 09:27:32;;;;;;;5.57;5.28;;;;;;;24.44;40.22;101309.84;6041246;23;20328;-67
2022/06/15 09:30:08;;;;;;;5.72;5.43;;;;;;;24.84;38.89;101314.69;6018684;23;20037;-68
2022/06/15 09:32:39;;;;;;;5.93;5.63;;;;;;;24.75;37.44;101318.31;6053653;23;20081;-73
2022/06/15 09:35:17;;;;;;;6.70;6.40;;;;;;;24.90;38.86;101310.53;6047056;23;20022;-72
2022/06/15 09:37:51;;;;;;;5.75;5.45;;;;;;;25.00;36.49;101313.09;6005559;23;20471;-67
2022/06/15 09:40:19;;;;;;;6.75;6.45;;;;;;;24.57;38.50;101280.78;5965948;23;20451;-67
2022/06/15 09:42:45;;;;;;;5.72;5.43;;;;;;;24.74;37.56;101310.44;6021639;23;20447;-67
2022/06/15 09:45:18;;;;;;;6.82;6.45;;;;;;;24.76;36.20;101317.31;5993262;23;20015;-72
2022/06/15 09:48:06;;;;;;;5.70;5.40;;;;;;;24.82;37.57;101299.75;6018461;23;20015;-68
2022/06/15 09:50:43;;;;;;;5.78;5.47;;;;;;;24.69;37.25;101311.72;6000676;23;20027;-68
2022/06/15 09:53:18;;;;;;;6.60;6.30;;;;;;;25.27;38.45;101302.16;6026274;23;20018;-72
2022/06/15 09:55:51;;;;;;;5.80;5.50;;;;;;;25.37;36.86;101269.78;5972985;23;20358;-67
2022/06/15 09:58:43;;;;;;;5.55;5.35;;;;;;;25.33;37.19;101275.66;6027500;23;20081;-67
2022/06/15 10:01:11;;;;;;;7.90;7.28;;;;;;;25.17;36.17;101281.78;5991075;23;20020;-69
2022/06/15 10:03:42;;;;;;;5.75;5.45;;;;;;;25.48;36.12;101303.59;6035342;23;20459;-73
2022/06/15 10:06:31;;;;;;;6.80;6.50;;;;;;;25.13;36.43;101308.13;5995049;23;20027;-72
2022/06/15 10:09:00;;;;;;;5.50;5.30;;;;;;;24.96;35.48;101271.47;6023702;23;20030;-74
2022/06/15 10:11:33;;;;;;;5.72;5.43;;;;;;;25.52;34.52;101313.03;6007635;23;20023;-67
2022/06/15 10:14:31;;;;;;;5.93;5.63;;;;;;;25.81;35.50;101300.97;6023039;23;20167;-67
2022/06/15 10:17:23;;;;;;;5.50;5.20;;;;;;;25.39;34.68;101312.63;5997135;23;20153;-67
2022/06/15 10:19:52;;;;;;;6.40;6.10;;;;;;;25.60;35.81;101304.13;6032200;23;20325;-67
2022/06/15 10:22:40;;;;;;;5.80;5.50;;;;;;;25.43;35.88;101290.63;5994517;23;20022;-69
2022/06/15 10:25:16;;;;;;;5.38;5.10;;;;;;;24.94;35.38;101169.56;6031070;23;20094;-74
2022/06/15 10:27:43;;;;;;;6.18;5.88;;;;;;;25.61;36.79;101257.44;6009969;23;20046;-72
2022/06/15 10:30:10;;;;;;;5.57;5.28;;;;;;;25.75;36.05;101304.34;6031406;23;20160;-73
2022/06/15 10:32:39;;;;;;;5.90;5.50;;;;;;;25.44;35.90;101288.81;6010652;23;20098;-69
2022/06/15 10:35:14;;;;;;;7.90;5.38;;;;;;;25.59;35.37;101260.28;6033566;23;21184;-70
2022/06/15 10:37:46;;;;;;;5.93;5.63;;;;;;;26.10;35.17;101273.66;6034774;23;20391;-71
2022/06/15 10:40:21;;;;;;;6.78;6.47;;;;;;;26.21;34.47;101300.22;5993305;23;20225;-71
2022/06/15 10:42:53;;;;;;;5.43;5.20;;;;;;;26.25;33.75;101298.84;6029048;23;20025;-73
2022/06/15 10:45:34;;;;;;;6.00;5.70;;;;;;;26.73;34.99;101292.78;5961992;23;20030;-68
2022/06/15 10:48:06;;;;;;;6.10;5.80;;;;;;;26.50;35.03;101271.94;6023675;23;20023;-67
2022/06/15 10:50:46;;;;;;;5.95;5.65;;;;;;;26.63;35.26;101279.50;5972445;23;20105;-67
2022/06/15 10:53:38;;;;;;;6.60;5.68;;;;;;;26.67;35.08;101284.38;6013746;23;20017;-67
2022/06/15 11:02:10;;;;;;;6.00;5.70;;;;;;;26.63;35.72;101253.44;5993121;23;20488;-72
2022/06/15 11:04:52;;;;;;;5.93;5.63;;;;;;;26.51;34.03;101273.63;6019445;23;20096;-73
2022/06/15 11:07:22;;;;;;;6.03;5.72;;;;;;;26.36;34.55;101269.94;5997048;23;20027;-72
2022/06/15 11:09:53;;;;;;;5.90;5.60;;;;;;;26.82;34.71;101257.59;6022217;23;20089;-67
2022/06/15 11:12:30;;;;;;;6.05;5.75;;;;;;;26.84;32.44;101274.41;5973729;23;20019;-68
2022/06/15 11:15:01;;;;;;;5.78;5.47;;;;;;;27.05;32.30;101273.84;6028960;23;20023;-68
2022/06/15 11:20:40;;;;;;;5.90;5.50;;;;;;;27.15;33.45;101264.72;6019516;23;20280;-67
2022/06/15 11:23:16;;;;;;;6.95;6.65;;;;;;;26.96;33.28;101266.81;5994797;23;20007;-67
2022/06/15 11:25:49;;;;;;;5.75;5.45;;;;;;;26.71;33.05;101255.25;6002867;23;20015;-67
2022/06/15 11:28:24;;;;;;;7.50;7.10;;;;;;;26.78;33.44;101223.94;5991078;23;20050;-67
2022/06/15 11:30:59;;;;;;;5.93;5.63;;;;;;;26.72;32.60;101246.19;6027368;23;20057;-67
2022/06/15 11:33:43;;;;;;;6.20;5.90;;;;;;;26.48;32.49;101217.44;6046877;23;20014;-67
2022/06/15 11:36:26;;;;;;;7.00;6.70;;;;;;;26.91;31.72;101249.50;6029248;23;20525;-69
2022/06/15 11:39:07;;;;;;;5.70;5.40;;;;;;;26.98;30.35;101251.31;5993844;23;20389;-68
2022/06/15 11:41:44;;;;;;;5.90;5.60;;;;;;;27.21;31.09;101254.06;6010854;23;20047;-68
2022/06/15 11:44:15;;;;;;;7.38;6.97;;;;;;;26.98;31.19;101248.63;5994200;23;20043;-68
2022/06/15 11:47:18;;;;;;;5.68;5.47;;;;;;;27.20;30.94;101228.16;5972859;23;20292;-67
2022/06/15 11:49:49;;;;;;;5.70;5.40;;;;;;;27.25;30.16;101230.34;6014245;23;20393;-68
2022/06/15 11:52:38;;;;;;;7.25;6.95;;;;;;;27.53;30.82;101241.44;5987522;23;20460;-68
2022/06/15 11:55:16;;;;;;;6.10;5.80;;;;;;;27.57;30.06;101217.66;6022737;23;20270;-68
2022/06/15 11:58:23;;;;;;;5.68;5.47;;;;;;;27.46;29.79;101245.88;5993035;23;20266;-67
2022/06/15 12:01:07;;;;;;;6.00;5.60;;;;;;;27.14;30.77;101207.28;5991977;23;20412;-68
2022/06/15 12:04:01;;;;;;;5.50;5.30;;;;;;;27.10;30.15;101245.53;5994718;23;20090;-66